createdAt,value
2022-09-04T00:01:54.158Z,1.95
2022-09-04T00:04:30.666Z,1.80
2022-09-04T00:07:05.868Z,1.70
2022-09-04T00:09:41.414Z,1.80
2022-09-04T00:12:08.880Z,1.50
2022-09-04T00:14:50.672Z,1.73
2022-09-04T00:17:23.229Z,1.90
2022-09-04T00:19:53.894Z,2.03
2022-09-04T00:22:32.746Z,1.85
2022-09-04T00:25:17.697Z,1.70
2022-09-04T00:27:47.098Z,1.60
2022-09-04T00:30:20.543Z,1.90
2022-09-04T00:33:04.368Z,1.83
2022-09-04T00:35:32.487Z,1.58
2022-09-04T00:38:02.763Z,1.63
2022-09-04T00:40:35.763Z,2.05
2022-09-04T00:43:11.064Z,2.22
2022-09-04T00:45:46.576Z,1.40
2022-09-04T00:48:22.224Z,1.40
2022-09-04T00:50:55.673Z,1.75
2022-09-04T00:53:26.102Z,1.60
2022-09-04T00:56:01.866Z,2.03
2022-09-04T00:58:48.317Z,1.60
2022-09-04T01:01:19.738Z,1.77
2022-09-04T01:04:04.840Z,1.77
2022-09-04T01:06:50.330Z,1.90
2022-09-04T01:09:17.052Z,1.50
2022-09-04T01:11:47.983Z,1.83
2022-09-04T01:14:14.391Z,1.60
2022-09-04T01:16:49.472Z,1.65
2022-09-04T01:19:24.106Z,1.90
2022-09-04T01:22:05.942Z,1.75
2022-09-04T01:24:42.791Z,1.20
2022-09-04T01:27:14.383Z,1.60
2022-09-04T01:29:46.844Z,1.60
2022-09-04T01:32:24.518Z,1.60
2022-09-04T01:34:59.613Z,1.30
2022-09-04T01:37:52.162Z,1.40
2022-09-04T01:40:23.906Z,1.38
2022-09-04T01:43:06.914Z,2.00
2022-09-04T01:45:52.948Z,1.77
2022-09-04T01:48:23.372Z,1.45
2022-09-04T01:50:53.603Z,1.93
2022-09-04T01:53:27.161Z,1.55
2022-09-04T01:56:08.463Z,1.52
2022-09-04T01:58:41.156Z,1.40
2022-09-04T02:01:13.803Z,1.58
2022-09-04T02:03:47.933Z,1.42
2022-09-04T02:06:33.246Z,1.30
2022-09-04T02:09:16.871Z,1.23
2022-09-04T02:11:49.043Z,1.60
2022-09-04T02:14:20.665Z,1.40
2022-09-04T02:17:08.716Z,1.20
2022-09-04T02:19:37.623Z,1.40
2022-09-04T02:22:12.557Z,1.30
2022-09-04T02:24:47.088Z,1.38
2022-09-04T02:27:13.476Z,1.95
2022-09-04T02:29:39.826Z,1.73
2022-09-04T02:32:26.474Z,1.65
2022-09-04T02:34:59.113Z,1.90
2022-09-04T02:37:32.640Z,1.40
2022-09-04T02:40:18.580Z,1.48
2022-09-04T02:42:53.185Z,1.58
2022-09-04T02:45:33.111Z,1.30
2022-09-04T02:48:20.501Z,1.83
2022-09-04T02:51:04.929Z,1.73
2022-09-04T02:53:50.231Z,1.13
2022-09-04T02:56:22.980Z,1.20
2022-09-04T02:59:11.616Z,1.85
2022-09-04T03:01:59.559Z,1.48
2022-09-04T03:04:33.418Z,1.10
2022-09-04T03:07:09.748Z,1.40
2022-09-04T03:09:36.112Z,1.25
2022-09-04T03:12:14.854Z,1.73
2022-09-04T03:14:44.645Z,1.65
2022-09-04T03:17:27.677Z,1.20
2022-09-04T03:20:00.324Z,1.25
2022-09-04T03:22:36.706Z,1.38
2022-09-04T03:25:09.865Z,1.52
2022-09-04T03:27:36.246Z,1.83
2022-09-04T03:30:07.281Z,1.30
2022-09-04T03:32:52.558Z,1.17
2022-09-04T03:35:37.920Z,1.35
2022-09-04T03:38:11.584Z,1.92
2022-09-04T03:40:57.587Z,1.50
2022-09-04T03:43:30.811Z,1.20
2022-09-04T03:45:57.204Z,1.60
2022-09-04T03:48:30.047Z,1.48
2022-09-04T03:50:57.693Z,1.45
2022-09-04T03:53:41.053Z,1.27
2022-09-04T03:56:14.876Z,1.52
2022-09-04T03:58:50.453Z,1.27
2022-09-04T04:01:25.023Z,1.50
2022-09-04T04:03:54.703Z,1.45
2022-09-04T04:06:40.597Z,1.00
2022-09-04T04:09:11.796Z,1.65
2022-09-04T04:14:17.198Z,1.50
2022-09-04T04:16:56.084Z,1.50
2022-09-04T04:19:42.265Z,1.35
2022-09-04T04:22:08.701Z,1.80
2022-09-04T04:24:54.251Z,1.38
2022-09-04T04:27:33.845Z,1.30
2022-09-04T04:30:00.282Z,1.10
2022-09-04T04:32:43.992Z,1.58
2022-09-04T04:35:16.555Z,1.52
2022-09-04T04:37:51.655Z,1.40
2022-09-04T04:40:18.045Z,1.42
2022-09-04T04:42:59.796Z,1.38
2022-09-04T04:45:47.958Z,1.30
2022-09-04T04:48:36.738Z,1.40
2022-09-04T04:51:24.450Z,1.25
2022-09-04T04:53:53.811Z,1.20
2022-09-04T04:56:26.437Z,1.20
2022-09-04T04:58:57.748Z,1.30
2022-09-04T05:01:43.494Z,1.15
2022-09-04T05:04:31.888Z,1.30
2022-09-04T05:07:01.185Z,1.25
2022-09-04T05:09:46.164Z,1.05
2022-09-04T05:12:24.966Z,1.02
2022-09-04T05:15:20.698Z,1.33
2022-09-04T05:17:51.125Z,1.60
2022-09-04T05:20:23.136Z,1.10
2022-09-04T05:22:56.750Z,1.25
2022-09-04T05:25:24.175Z,1.48
2022-09-04T05:27:50.552Z,1.55
2022-09-04T05:30:19.917Z,1.30
2022-09-04T05:32:58.740Z,1.30
2022-09-04T05:35:43.991Z,1.42
2022-09-04T05:38:21.205Z,1.35
2022-09-04T05:41:06.292Z,1.27
2022-09-04T05:43:38.622Z,1.15
2022-09-04T05:46:23.720Z,1.10
2022-09-04T05:48:50.142Z,1.40
2022-09-04T05:51:45.854Z,1.40
2022-09-04T05:54:15.376Z,1.08
2022-09-04T05:57:04.287Z,1.48
2022-09-04T05:59:49.201Z,1.23
2022-09-04T06:02:34.287Z,1.50
2022-09-04T06:05:13.366Z,1.52
2022-09-04T06:07:52.023Z,1.55
2022-09-04T06:10:29.618Z,1.10
2022-09-04T06:13:08.390Z,1.40
2022-09-04T06:15:40.862Z,1.50
2022-09-04T06:18:17.508Z,1.20
2022-09-04T06:21:03.087Z,1.40
2022-09-04T06:23:48.023Z,1.33
2022-09-04T06:26:29.546Z,1.55
2022-09-04T06:29:13.652Z,1.58
2022-09-04T06:31:56.774Z,1.30
2022-09-04T06:34:38.173Z,1.45
2022-09-04T06:37:34.141Z,1.38
2022-09-04T06:40:07.602Z,1.50
2022-09-04T06:42:42.329Z,1.50
2022-09-04T06:45:18.524Z,1.70
2022-09-04T06:47:51.174Z,1.83
2022-09-04T06:50:25.337Z,1.55
2022-09-04T06:53:04.148Z,1.75
2022-09-04T06:55:53.624Z,1.60
2022-09-04T06:58:40.074Z,1.65
2022-09-04T07:01:08.888Z,1.90
2022-09-04T07:03:50.817Z,1.75
2022-09-04T07:06:21.478Z,1.77
2022-09-04T07:08:56.889Z,1.70
2022-09-04T07:11:28.552Z,1.73
2022-09-04T07:14:17.077Z,1.77
2022-09-04T07:16:46.637Z,2.00
2022-09-04T07:19:21.947Z,1.90
2022-09-04T07:22:06.459Z,1.60
2022-09-04T07:24:32.798Z,1.80
2022-09-04T07:27:06.956Z,1.70
2022-09-04T07:29:52.197Z,2.20
2022-09-04T07:32:22.180Z,2.00
2022-09-04T07:35:14.623Z,1.85
2022-09-04T07:37:50.175Z,2.10
2022-09-04T07:40:18.568Z,1.95
2022-09-04T07:42:45.740Z,2.15
2022-09-04T07:45:58.552Z,1.95
2022-09-04T07:48:34.867Z,2.00
2022-09-04T07:51:10.578Z,1.95
2022-09-04T07:53:55.697Z,1.90
2022-09-04T07:56:35.350Z,1.73
2022-09-04T07:59:20.760Z,2.15
2022-09-04T08:01:52.695Z,1.85
2022-09-04T08:04:19.151Z,2.00
2022-09-04T08:06:51.000Z,2.00
2022-09-04T08:09:18.157Z,2.08
2022-09-04T08:11:53.990Z,2.08
2022-09-04T08:14:26.918Z,2.17
2022-09-04T08:17:14.331Z,2.55
2022-09-04T08:19:50.183Z,2.95
2022-09-04T08:22:35.154Z,2.25
2022-09-04T08:25:20.441Z,2.10
2022-09-04T08:28:08.363Z,2.03
2022-09-04T08:30:40.497Z,2.10
2022-09-04T08:33:12.986Z,2.30
2022-09-04T08:35:58.311Z,1.92
2022-09-04T08:38:41.278Z,2.00
2022-09-04T08:41:13.841Z,2.40
2022-09-04T08:43:40.224Z,3.72
2022-09-04T08:46:29.040Z,2.10
2022-09-04T08:49:11.531Z,2.22
2022-09-04T08:51:59.276Z,2.03
2022-09-04T08:54:37.362Z,2.30
2022-09-04T08:57:17.330Z,2.15
2022-09-04T08:59:43.693Z,2.00
2022-09-04T09:02:29.069Z,2.33
2022-09-04T09:05:14.600Z,2.10
2022-09-04T09:08:01.822Z,1.70
2022-09-04T09:10:37.438Z,2.40
2022-09-04T09:13:17.679Z,2.10
2022-09-04T09:15:49.925Z,1.95
2022-09-04T09:18:36.623Z,2.08
2022-09-04T09:21:12.433Z,2.40
2022-09-04T09:23:39.103Z,1.88
2022-09-04T09:26:08.765Z,1.80
2022-09-04T09:28:35.222Z,2.10
2022-09-04T09:31:23.710Z,1.85
2022-09-04T09:33:56.242Z,1.70
2022-09-04T09:36:35.523Z,1.60
2022-09-04T09:39:20.885Z,1.80
2022-09-04T09:41:49.514Z,1.65
2022-09-04T09:44:19.022Z,1.55
2022-09-04T09:46:59.274Z,1.38
2022-09-04T09:49:35.442Z,1.73
2022-09-04T09:52:18.704Z,1.75
2022-09-04T09:55:03.880Z,2.03
2022-09-04T09:57:48.965Z,1.70
2022-09-04T10:00:17.223Z,1.65
2022-09-04T10:02:52.829Z,1.70
2022-09-04T10:05:35.833Z,1.50
2022-09-04T10:08:02.239Z,2.22
2022-09-04T10:10:46.767Z,1.90
2022-09-04T10:13:27.953Z,1.60
2022-09-04T10:16:11.974Z,1.80
2022-09-04T10:18:44.610Z,1.42
2022-09-04T10:21:42.393Z,1.35
2022-09-04T10:24:26.035Z,1.50
2022-09-04T10:26:55.611Z,1.63
2022-09-04T10:29:45.096Z,1.50
2022-09-04T10:32:11.431Z,1.63
2022-09-04T10:34:38.379Z,1.50
2022-09-04T10:37:26.774Z,1.50
2022-09-04T10:40:45.168Z,1.60
2022-09-04T10:43:31.557Z,1.63
2022-09-04T10:46:01.197Z,1.40
2022-09-04T10:48:35.839Z,1.60
2022-09-04T10:51:02.221Z,1.45
2022-09-04T10:53:31.640Z,1.73
2022-09-04T10:56:09.181Z,1.75
2022-09-04T10:58:39.970Z,1.52
2022-09-04T11:01:27.613Z,1.80
2022-09-04T11:04:13.225Z,1.70
2022-09-04T11:06:39.571Z,1.63
2022-09-04T11:09:18.963Z,1.63
2022-09-04T11:12:13.340Z,1.30
2022-09-04T11:14:55.855Z,1.70
2022-09-04T11:17:22.257Z,1.40
2022-09-04T11:20:16.150Z,1.50
2022-09-04T11:22:59.120Z,1.75
2022-09-04T11:25:47.890Z,1.38
2022-09-04T11:28:40.393Z,1.70
2022-09-04T11:31:25.112Z,1.85
2022-09-04T11:34:11.759Z,1.60
2022-09-04T11:36:39.485Z,1.52
2022-09-04T11:39:26.183Z,1.50
2022-09-04T11:42:08.414Z,1.77
2022-09-04T11:44:42.309Z,1.30
2022-09-04T11:47:21.049Z,1.58
2022-09-04T11:50:06.447Z,1.63
2022-09-04T11:52:41.817Z,1.75
2022-09-04T11:55:23.548Z,1.77
2022-09-04T11:57:59.093Z,1.70
2022-09-04T12:00:27.746Z,1.50
2022-09-04T12:02:56.942Z,1.40
2022-09-04T12:05:41.726Z,1.23
2022-09-04T12:08:10.979Z,1.75
2022-09-04T12:10:59.470Z,1.30
2022-09-04T12:13:44.814Z,1.70
2022-09-04T12:16:27.296Z,1.70
2022-09-04T12:19:26.997Z,1.67
2022-09-04T12:22:14.568Z,1.60
2022-09-04T12:24:59.469Z,1.23
2022-09-04T12:27:25.889Z,2.08
2022-09-04T12:30:11.256Z,1.63
2022-09-04T12:32:46.777Z,1.60
2022-09-04T12:35:25.770Z,1.83
2022-09-04T12:37:56.354Z,1.58
2022-09-04T12:40:25.859Z,1.63
2022-09-04T12:43:00.049Z,1.73
2022-09-04T12:45:33.445Z,1.20
2022-09-04T12:48:11.157Z,1.27
2022-09-04T12:50:40.211Z,1.40
2022-09-04T12:53:26.423Z,1.63
2022-09-04T12:55:53.012Z,1.30
2022-09-04T12:58:38.667Z,1.40
2022-09-04T13:01:11.294Z,1.50
2022-09-04T13:03:58.806Z,1.73
2022-09-04T13:06:37.580Z,1.50
2022-09-04T13:09:15.457Z,1.75
2022-09-04T13:12:00.858Z,1.27
2022-09-04T13:14:33.362Z,1.35
2022-09-04T13:17:08.394Z,1.98
2022-09-04T13:19:51.109Z,1.40
2022-09-04T13:22:29.818Z,1.15
2022-09-04T13:24:57.994Z,1.30
2022-09-04T13:27:34.237Z,1.40
2022-09-04T13:30:21.646Z,1.63
2022-09-04T13:32:58.614Z,1.50
2022-09-04T13:35:38.732Z,1.40
2022-09-04T13:40:42.797Z,1.50
2022-09-04T13:43:09.206Z,1.45
2022-09-04T13:45:40.873Z,2.85
2022-09-04T13:48:15.746Z,1.52
2022-09-04T13:50:48.224Z,1.50
2022-09-04T13:53:19.110Z,1.30
2022-09-04T13:55:49.963Z,1.58
2022-09-04T13:58:19.155Z,1.40
2022-09-04T14:00:47.192Z,1.45
2022-09-04T14:03:25.132Z,1.45
2022-09-04T14:05:52.050Z,1.30
2022-09-04T14:08:18.864Z,1.40
2022-09-04T14:11:00.421Z,1.23
2022-09-04T14:13:28.446Z,1.58
2022-09-04T14:16:01.877Z,1.45
2022-09-04T14:18:45.210Z,1.50
2022-09-04T14:21:20.481Z,1.50
2022-09-04T14:23:54.222Z,1.23
2022-09-04T14:26:39.472Z,1.63
2022-09-04T14:29:16.297Z,1.50
2022-09-04T14:31:52.459Z,1.85
2022-09-04T14:34:39.576Z,1.85
2022-09-04T14:37:16.144Z,1.50
2022-09-04T14:39:52.372Z,1.33
2022-09-04T14:42:29.527Z,1.30
2022-09-04T14:45:12.435Z,1.42
2022-09-04T14:48:00.017Z,1.65
2022-09-04T14:50:29.430Z,1.75
2022-09-04T14:53:01.025Z,1.65
2022-09-04T14:55:29.347Z,1.70
2022-09-04T14:57:59.937Z,1.50
2022-09-04T15:03:08.723Z,1.77
2022-09-04T15:05:43.190Z,1.73
2022-09-04T15:08:10.149Z,1.70
2022-09-04T15:10:49.869Z,1.60
2022-09-04T15:13:35.213Z,1.80
2022-09-04T15:16:09.939Z,1.85
2022-09-04T15:18:45.413Z,1.77
2022-09-04T15:21:21.280Z,1.35
2022-09-04T15:23:51.613Z,2.08
2022-09-04T15:26:28.250Z,1.88
2022-09-04T15:29:02.469Z,1.67
2022-09-04T15:31:33.475Z,1.80
2022-09-04T15:34:01.650Z,2.00
2022-09-04T15:36:28.219Z,2.00
2022-09-04T15:38:56.508Z,1.83
2022-09-04T15:41:26.222Z,1.95
2022-09-04T15:44:00.875Z,1.60
2022-09-04T15:46:36.653Z,2.00
2022-09-04T15:49:13.007Z,1.85
2022-09-04T15:51:43.355Z,2.10
2022-09-04T15:54:09.741Z,1.60
2022-09-04T15:56:43.652Z,1.90
2022-09-04T15:59:16.131Z,1.92
2022-09-04T16:01:43.189Z,1.58
2022-09-04T16:04:23.373Z,1.60
2022-09-04T16:06:54.449Z,1.90
2022-09-04T16:09:39.975Z,1.92
2022-09-04T16:12:10.259Z,2.13
2022-09-04T16:14:44.581Z,1.70
2022-09-04T16:17:20.196Z,2.15
2022-09-04T16:20:06.017Z,1.85
2022-09-04T16:22:36.327Z,2.00
2022-09-04T16:25:11.773Z,1.63
2022-09-04T16:27:44.130Z,2.00
2022-09-04T16:30:26.153Z,1.60
2022-09-04T16:32:52.671Z,1.80
2022-09-04T16:35:21.459Z,1.70
2022-09-04T16:37:57.216Z,1.63
2022-09-04T16:40:30.543Z,1.90
2022-09-04T16:43:23.054Z,1.90
2022-09-04T16:46:08.074Z,1.80
2022-09-04T16:48:57.899Z,2.08
2022-09-04T16:51:39.869Z,1.95
2022-09-04T16:54:08.479Z,1.95
2022-09-04T16:56:40.477Z,1.90
2022-09-04T16:59:19.011Z,2.00
2022-09-04T17:02:10.563Z,1.60
2022-09-04T17:04:40.329Z,1.70
2022-09-04T17:07:07.392Z,1.73
2022-09-04T17:09:43.990Z,2.20
2022-09-04T17:12:23.981Z,2.20
2022-09-04T17:15:15.065Z,2.28
2022-09-04T17:20:12.395Z,1.95
2022-09-04T17:29:10.276Z,2.53
2022-09-04T17:29:19.068Z,1.77
2022-09-04T17:31:15.509Z,1.95
2022-09-04T17:39:44.277Z,1.80
2022-09-04T17:40:37.145Z,1.80
2022-09-04T17:40:55.437Z,2.35
2022-09-04T17:42:58.486Z,1.73
2022-09-04T17:45:46.622Z,2.50
2022-09-04T17:48:21.779Z,2.00
2022-09-04T17:50:52.792Z,2.75
2022-09-04T17:53:34.499Z,1.95
2022-09-04T17:56:21.452Z,2.10
2022-09-04T17:58:52.192Z,1.98
2022-09-04T18:01:22.155Z,2.10
2022-09-04T18:04:21.509Z,2.03
2022-09-04T18:06:54.750Z,2.42
2022-09-04T18:09:27.470Z,2.13
2022-09-04T18:12:00.905Z,2.28
2022-09-04T18:14:39.067Z,2.13
2022-09-04T18:17:12.763Z,1.92
2022-09-04T18:19:42.711Z,2.30
2022-09-04T18:22:25.507Z,2.10
2022-09-04T18:24:57.270Z,2.50
2022-09-04T18:27:28.610Z,2.13
2022-09-04T18:31:25.778Z,2.25
2022-09-04T18:37:20.792Z,2.40
2022-09-04T18:37:21.674Z,2.13
2022-09-04T18:38:47.089Z,2.47
2022-09-04T18:50:15.792Z,2.33
2022-09-04T18:50:28.815Z,2.72
2022-09-04T18:50:36.248Z,2.25
2022-09-04T18:53:28.865Z,2.72
2022-09-04T18:56:20.371Z,2.35
2022-09-04T18:58:57.681Z,2.70
2022-09-04T19:01:27.387Z,2.75
2022-09-04T19:04:01.936Z,2.55
2022-09-04T19:07:06.998Z,3.28
2022-09-04T19:09:48.604Z,4.00
2022-09-04T19:12:23.685Z,2.60
2022-09-04T19:14:53.160Z,2.72
2022-09-04T19:17:39.851Z,2.72
2022-09-04T19:20:13.568Z,3.20
2022-09-04T19:22:47.304Z,2.65
2022-09-04T19:25:20.805Z,3.25
2022-09-04T19:27:55.242Z,2.65
2022-09-04T19:30:23.872Z,3.42
2022-09-04T19:32:59.844Z,2.90
2022-09-04T19:35:35.063Z,3.22
2022-09-04T19:38:09.689Z,3.13
2022-09-04T19:45:55.378Z,2.85
2022-09-04T19:46:13.885Z,2.80
2022-09-04T19:46:53.288Z,3.08
2022-09-04T19:50:48.833Z,2.97
2022-09-04T19:53:33.615Z,2.90
2022-09-04T19:55:23.460Z,3.22
2022-09-04T19:58:00.813Z,3.22
2022-09-04T20:00:42.912Z,3.00
2022-09-04T20:03:34.433Z,3.35
2022-09-04T20:06:21.171Z,2.83
2022-09-04T20:08:51.792Z,2.88
2022-09-04T20:11:35.339Z,3.10
2022-09-04T20:14:14.112Z,3.15
2022-09-04T20:16:57.402Z,3.00
2022-09-04T20:19:34.312Z,2.90
2022-09-04T20:22:06.845Z,3.20
2022-09-04T20:24:34.056Z,2.78
2022-09-04T20:27:17.299Z,3.20
2022-09-04T20:29:54.640Z,3.22
2022-09-04T20:32:24.926Z,3.20
2022-09-04T20:34:56.682Z,3.05
2022-09-04T20:37:41.568Z,2.90
2022-09-04T20:40:27.041Z,3.30
2022-09-04T20:42:56.802Z,2.95
2022-09-04T20:47:56.783Z,3.20
2022-09-04T20:52:45.108Z,2.97
2022-09-04T20:52:57.016Z,3.08
2022-09-04T20:54:05.831Z,3.28
2022-09-04T20:58:53.696Z,3.03
2022-09-04T21:03:13.847Z,3.30
2022-09-04T21:03:22.837Z,3.30
2022-09-04T21:05:54.192Z,3.50
2022-09-04T21:08:45.944Z,3.72
2022-09-04T21:11:19.132Z,3.22
2022-09-04T21:14:03.085Z,4.00
2022-09-04T21:16:44.006Z,3.17
2022-09-04T21:19:28.794Z,3.70
2022-09-04T21:22:28.965Z,3.67
2022-09-04T21:25:06.319Z,3.30
2022-09-04T21:27:48.147Z,3.38
2022-09-04T21:30:16.388Z,3.05
2022-09-04T21:32:57.216Z,3.75
2022-09-04T21:35:45.670Z,3.15
2022-09-04T21:38:27.441Z,3.53
2022-09-04T21:41:03.049Z,4.05
2022-09-04T21:43:52.406Z,3.03
2022-09-04T21:46:28.805Z,3.50
2022-09-04T21:49:23.562Z,3.08
2022-09-04T21:52:11.565Z,3.42
2022-09-04T21:58:34.026Z,3.60
2022-09-04T22:02:27.794Z,3.78
2022-09-04T22:02:39.059Z,3.70
2022-09-04T22:03:29.445Z,3.38
2022-09-04T22:06:03.983Z,3.72
2022-09-04T22:13:29.477Z,3.50
2022-09-04T22:13:30.939Z,3.40
2022-09-04T22:14:48.328Z,3.53
2022-09-04T22:17:25.353Z,3.72
2022-09-04T22:20:02.414Z,3.08
2022-09-04T22:22:44.219Z,3.70
2022-09-04T22:25:16.514Z,3.70
2022-09-04T22:28:07.437Z,2.97
2022-09-04T22:30:46.154Z,3.35
2022-09-04T22:33:24.637Z,3.25
2022-09-04T22:36:03.293Z,3.42
2022-09-04T22:38:48.242Z,3.65
2022-09-04T22:41:27.370Z,3.25
2022-09-04T22:44:05.378Z,3.63
2022-09-04T22:46:42.713Z,3.63
2022-09-04T22:49:16.671Z,3.65
2022-09-04T22:52:02.243Z,3.60
2022-09-04T22:54:47.653Z,3.40
2022-09-04T22:57:14.299Z,3.30
2022-09-04T22:59:59.723Z,3.60
2022-09-04T23:03:04.284Z,3.83
2022-09-04T23:05:18.775Z,3.85
2022-09-04T23:12:44.544Z,3.67
2022-09-04T23:13:48.166Z,3.42
2022-09-04T23:14:06.376Z,4.07
2022-09-04T23:16:33.839Z,3.40
2022-09-04T23:25:16.602Z,3.35
2022-09-04T23:26:44.299Z,3.63
2022-09-04T23:26:46.041Z,3.58
2022-09-04T23:28:02.598Z,3.70
2022-09-04T23:30:58.151Z,3.95
2022-09-04T23:33:41.773Z,3.75
2022-09-04T23:36:28.470Z,4.43
2022-09-04T23:39:24.064Z,3.70
2022-09-04T23:42:05.637Z,3.53
2022-09-04T23:44:46.243Z,4.28
2022-09-04T23:47:19.713Z,3.72
2022-09-04T23:50:02.226Z,3.70
2022-09-04T23:52:49.268Z,3.60
2022-09-04T23:55:24.884Z,3.72
2022-09-04T23:58:29.004Z,3.60
